Time;durP1;ratioP1;P1;durP2;ratioP2;P2;SDS_P1;SDS_P2;PMS_P1;PMS_P2;Temp;Humidity;BMP_temperature;BMP_pressure;BME280_temperature;BME280_humidity;BME280_pressure;Samples;Min_cycle;Max_cycle;Signal;HPM_P1;HPM_P2
2022/11/02 00:01:20;;;;;;;0.00;0.00;;;13.20;99.90;;;;;;5090788;28;20044;-82
2022/11/02 00:03:47;;;;;;;0.38;0.30;;;13.10;99.90;;;;;;5074229;28;20063;-82
2022/11/02 00:06:12;;;;;;;0.00;0.00;;;13.00;99.90;;;;;;5074093;28;20528;-82
2022/11/02 00:08:38;;;;;;;0.00;0.00;;;12.90;99.90;;;;;;5074459;28;20142;-82
2022/11/02 00:11:04;;;;;;;0.00;0.00;;;12.90;99.90;;;;;;5092501;28;20044;-82
2022/11/02 00:13:29;;;;;;;1.30;0.00;;;12.90;99.90;;;;;;5075511;28;20427;-82
2022/11/02 00:15:55;;;;;;;0.00;0.00;;;12.80;99.90;;;;;;5092668;28;20044;-82
2022/11/02 00:18:21;;;;;;;0.00;0.00;;;12.80;99.90;;;;;;5075939;28;20548;-82
2022/11/02 00:20:47;;;;;;;0.00;0.00;;;12.80;99.90;;;;;;5092739;28;20491;-82
2022/11/02 00:23:14;;;;;;;0.00;0.00;;;12.80;99.90;;;;;;5092681;28;20387;-82
2022/11/02 00:25:50;;;;;;;0.00;0.00;;;12.80;99.90;;;;;;5092308;28;20048;-82
2022/11/02 00:28:16;;;;;;;0.00;0.00;;;12.70;99.90;;;;;;5075948;28;20063;-82
2022/11/02 00:30:43;;;;;;;0.00;0.00;;;12.80;99.90;;;;;;5075683;28;20048;-82
2022/11/02 00:33:09;;;;;;;0.00;0.00;;;12.80;99.90;;;;;;5092500;28;20052;-82
2022/11/02 00:35:35;;;;;;;0.00;0.00;;;12.80;99.90;;;;;;5092373;28;20047;-83
2022/11/02 00:38:01;;;;;;;0.10;0.10;;;12.90;99.90;;;;;;5091656;28;20500;-82
2022/11/02 00:40:27;;;;;;;0.40;0.38;;;12.80;99.90;;;;;;5092260;28;20054;-82
2022/11/02 00:42:52;;;;;;;0.38;0.38;;;12.80;99.90;;;;;;5092356;28;20430;-82
2022/11/02 00:45:18;;;;;;;0.00;0.00;;;12.80;99.90;;;;;;5092129;28;20043;-82
2022/11/02 00:47:44;;;;;;;0.30;0.25;;;12.80;99.90;;;;;;5093575;28;20051;-81
2022/11/02 00:50:10;;;;;;;0.10;0.10;;;12.80;99.90;;;;;;5096028;28;20046;-81
2022/11/02 00:52:41;;;;;;;0.00;0.00;;;12.70;99.90;;;;;;5095761;28;20135;-82
2022/11/02 00:55:09;;;;;;;0.00;0.00;;;12.70;99.90;;;;;;5079166;28;20048;-82
2022/11/02 00:57:34;;;;;;;0.17;0.17;;;12.60;99.90;;;;;;5078959;28;20139;-81
2022/11/02 01:00:00;;;;;;;0.55;0.30;;;12.60;99.90;;;;;;5079303;28;20130;-82
2022/11/02 01:02:26;;;;;;;0.65;0.47;;;12.60;99.90;;;;;;5079546;28;20078;-81
2022/11/02 01:04:51;;;;;;;0.00;0.00;;;12.60;99.90;;;;;;5078785;28;20587;-82
2022/11/02 01:07:17;;;;;;;0.10;0.10;;;12.70;99.90;;;;;;5079301;28;20064;-81
2022/11/02 01:09:43;;;;;;;0.45;0.45;;;12.60;99.90;;;;;;5095410;28;20051;-82
2022/11/02 01:12:09;;;;;;;0.00;0.00;;;12.70;99.90;;;;;;5095320;28;20044;-82
2022/11/02 01:14:35;;;;;;;0.00;0.00;;;12.70;99.90;;;;;;5078730;28;20086;-82
2022/11/02 01:17:01;;;;;;;0.43;0.43;;;12.80;99.90;;;;;;5078789;28;20052;-82
2022/11/02 01:19:26;;;;;;;0.00;0.00;;;12.80;99.90;;;;;;5095875;28;20388;-81
2022/11/02 01:21:52;;;;;;;0.00;0.00;;;12.80;99.90;;;;;;5095699;28;20441;-81
2022/11/02 01:24:18;;;;;;;0.00;0.00;;;12.90;99.90;;;;;;5078614;28;20568;-82
2022/11/02 01:26:44;;;;;;;0.68;0.50;;;12.80;99.90;;;;;;5078640;28;20093;-82
2022/11/02 01:29:10;;;;;;;0.00;0.00;;;12.80;99.90;;;;;;5094519;28;20052;-81
2022/11/02 01:31:36;;;;;;;0.00;0.00;;;12.90;99.90;;;;;;5094777;28;20047;-82
2022/11/02 01:34:01;;;;;;;1.45;0.38;;;12.90;99.90;;;;;;5095202;28;20032;-82
2022/11/02 01:36:27;;;;;;;0.00;0.00;;;12.90;99.90;;;;;;5095198;28;20040;-82
2022/11/02 01:38:53;;;;;;;0.47;0.47;;;12.90;99.90;;;;;;5094770;28;20044;-82
2022/11/02 01:41:19;;;;;;;0.32;0.32;;;12.90;99.90;;;;;;5078304;28;20051;-82
2022/11/02 01:43:46;;;;;;;0.20;0.10;;;12.90;99.90;;;;;;5079049;28;20059;-81
2022/11/02 01:46:21;;;;;;;0.00;0.00;;;12.90;99.90;;;;;;5094387;28;20064;-82
2022/11/02 01:49:02;;;;;;;6.93;0.55;;;13.00;99.90;;;;;;5094756;28;20060;-82
2022/11/02 01:52:01;;;;;;;0.00;0.00;;;12.90;99.90;;;;;;5077809;28;20039;-82
2022/11/02 01:54:36;;;;;;;0.00;0.00;;;12.90;99.90;;;;;;5095447;28;20048;-81
2022/11/02 01:57:08;;;;;;;0.00;0.00;;;12.90;99.90;;;;;;5094905;28;20050;-82
2022/11/02 02:00:01;;;;;;;0.22;0.22;;;12.90;99.90;;;;;;5077391;28;20048;-82
2022/11/02 02:02:28;;;;;;;0.73;0.73;;;12.90;99.90;;;;;;5095453;28;20510;-82
2022/11/02 02:05:05;;;;;;;0.00;0.00;;;12.90;99.90;;;;;;5094765;28;20043;-82
2022/11/02 02:07:33;;;;;;;0.25;0.25;;;12.90;99.90;;;;;;5077834;28;20070;-82
2022/11/02 02:09:59;;;;;;;0.35;0.10;;;12.90;99.90;;;;;;5077533;28;20135;-82
2022/11/02 02:12:26;;;;;;;0.00;0.00;;;12.90;99.90;;;;;;5077348;28;20134;-82
2022/11/02 02:14:52;;;;;;;0.20;0.20;;;12.90;99.90;;;;;;5094066;28;20138;-83
2022/11/02 02:17:33;;;;;;;0.17;0.17;;;12.90;99.90;;;;;;5077613;28;20091;-82
2022/11/02 02:20:09;;;;;;;0.40;0.20;;;12.90;99.90;;;;;;5077534;28;20055;-82
2022/11/02 02:23:00;;;;;;;0.20;0.20;;;12.90;99.90;;;;;;5094445;28;20036;-82
2022/11/02 02:25:50;;;;;;;0.00;0.00;;;12.90;99.90;;;;;;5095002;28;20052;-82
2022/11/02 02:28:58;;;;;;;0.00;0.00;;;12.90;99.90;;;;;;5094404;28;20047;-82
2022/11/02 02:31:41;;;;;;;0.00;0.00;;;12.90;99.90;;;;;;5077071;28;20090;-82
2022/11/02 02:34:22;;;;;;;0.00;0.00;;;12.90;99.90;;;;;;5077368;28;20044;-82
2022/11/02 02:37:02;;;;;;;0.00;0.00;;;12.80;99.90;;;;;;5094351;28;20395;-83
2022/11/02 02:40:06;;;;;;;0.20;0.20;;;12.70;99.90;;;;;;5093874;28;20475;-83
2022/11/02 02:42:53;;;;;;;0.00;0.00;;;12.60;99.90;;;;;;5094382;28;20098;-83
2022/11/02 02:45:32;;;;;;;0.00;0.00;;;12.60;99.90;;;;;;5076966;28;20109;-83
2022/11/02 02:48:13;;;;;;;0.00;0.00;;;12.50;99.90;;;;;;5093680;28;20438;-83
2022/11/02 02:51:00;;;;;;;0.00;0.00;;;12.50;99.90;;;;;;5077397;28;20476;-83
2022/11/02 02:53:36;;;;;;;0.10;0.10;;;12.50;99.90;;;;;;5076669;28;20068;-83
2022/11/02 02:56:04;;;;;;;0.00;0.00;;;12.50;99.90;;;;;;5076769;28;20135;-83
2022/11/02 02:58:44;;;;;;;0.00;0.00;;;12.40;99.90;;;;;;5076634;28;20043;-84
2022/11/02 03:01:14;;;;;;;0.10;0.10;;;12.40;99.90;;;;;;5093689;28;20044;-83
2022/11/02 03:03:41;;;;;;;0.00;0.00;;;12.40;99.90;;;;;;5076614;28;20047;-83
2022/11/02 03:06:21;;;;;;;0.00;0.00;;;12.40;99.90;;;;;;5076723;28;20064;-82
2022/11/02 03:09:21;;;;;;;0.60;0.25;;;12.30;99.90;;;;;;5076689;28;20077;-84
2022/11/02 03:12:15;;;;;;;0.00;0.00;;;12.30;99.90;;;;;;5017882;28;20147;-81
2022/11/02 03:14:52;;;;;;;2.90;0.57;;;12.30;99.90;;;;;;4977097;28;20527;-82
2022/11/02 03:17:23;;;;;;;0.00;0.00;;;12.10;99.90;;;;;;4976432;28;20565;-82
2022/11/02 03:19:57;;;;;;;0.00;0.00;;;12.10;99.90;;;;;;4975817;28;20064;-82
2022/11/02 03:22:41;;;;;;;0.00;0.00;;;12.00;99.90;;;;;;4992826;28;20384;-81
2022/11/02 03:25:22;;;;;;;0.00;0.00;;;11.90;99.90;;;;;;4976597;28;20069;-82
2022/11/02 03:28:28;;;;;;;0.00;0.00;;;11.90;99.90;;;;;;4976443;28;20542;-82
2022/11/02 03:31:00;;;;;;;0.00;0.00;;;11.80;99.90;;;;;;4976329;28;20049;-81
2022/11/02 03:33:34;;;;;;;0.00;0.00;;;11.80;99.90;;;;;;4960328;28;20061;-81
2022/11/02 03:36:14;;;;;;;0.00;0.00;;;11.70;99.90;;;;;;4976408;28;20062;-81
2022/11/02 03:39:11;;;;;;;0.20;0.10;;;11.70;99.90;;;;;;4976369;28;20058;-81
2022/11/02 03:41:40;;;;;;;0.00;0.00;;;11.70;99.90;;;;;;4973267;28;20058;-82
2022/11/02 03:44:10;;;;;;;0.20;0.20;;;11.60;99.90;;;;;;4976202;28;20085;-82
2022/11/02 03:46:39;;;;;;;0.00;0.00;;;11.70;99.90;;;;;;4975326;28;20058;-81
2022/11/02 03:49:06;;;;;;;0.00;0.00;;;11.60;99.90;;;;;;4996429;28;20049;-82
2022/11/02 03:51:37;;;;;;;0.00;0.00;;;11.60;99.90;;;;;;5054962;28;20408;-82
2022/11/02 03:54:38;;;;;;;0.00;0.00;;;11.60;99.90;;;;;;5093134;28;20040;-82
2022/11/02 03:57:06;;;;;;;0.00;0.00;;;11.60;99.90;;;;;;5092789;28;20054;-82
2022/11/02 03:59:32;;;;;;;0.00;0.00;;;11.70;99.90;;;;;;5092722;28;20047;-82
2022/11/02 04:02:00;;;;;;;0.00;0.00;;;11.60;99.90;;;;;;5092544;28;20061;-82
2022/11/02 04:04:25;;;;;;;0.00;0.00;;;11.60;99.90;;;;;;5092098;28;20056;-82
2022/11/02 04:06:52;;;;;;;0.00;0.00;;;11.60;99.90;;;;;;5075903;28;20059;-81
2022/11/02 04:09:18;;;;;;;0.00;0.00;;;11.60;99.90;;;;;;5092448;28;20055;-82
2022/11/02 04:14:36;;;;;;;0.00;0.00;;;11.50;99.90;;;;;;5092766;28;20040;-82
2022/11/02 04:19:48;;;;;;;0.00;0.00;;;11.50;99.90;;;;;;5092950;28;20081;-82
2022/11/02 04:27:45;;;;;;;0.00;0.00;;;11.50;99.90;;;;;;5096534;28;20048;-82
2022/11/02 04:30:11;;;;;;;0.00;0.00;;;11.60;99.90;;;;;;5079555;28;20454;-82
2022/11/02 04:35:31;;;;;;;0.00;0.00;;;11.50;99.90;;;;;;5096408;28;20051;-82
2022/11/02 04:40:42;;;;;;;0.00;0.00;;;11.50;99.90;;;;;;5096493;28;20066;-82
2022/11/02 04:43:07;;;;;;;0.00;0.00;;;11.40;99.90;;;;;;5096187;28;20044;-82
2022/11/02 04:45:33;;;;;;;0.00;0.00;;;11.50;99.90;;;;;;5079169;28;20056;-82
2022/11/02 04:48:00;;;;;;;0.00;0.00;;;11.50;99.90;;;;;;5079107;28;20443;-82
2022/11/02 04:50:26;;;;;;;0.00;0.00;;;11.60;99.90;;;;;;5079638;28;20046;-82
2022/11/02 04:52:56;;;;;;;1.00;0.30;;;11.50;99.90;;;;;;5078813;28;20411;-82
2022/11/02 04:55:22;;;;;;;0.00;0.00;;;11.50;99.90;;;;;;5079088;28;20135;-82
2022/11/02 04:57:47;;;;;;;0.00;0.00;;;11.60;99.90;;;;;;5095909;28;20571;-82
2022/11/02 05:00:15;;;;;;;0.00;0.00;;;11.50;99.90;;;;;;5079469;28;20040;-82
2022/11/02 05:02:41;;;;;;;0.00;0.00;;;11.50;99.90;;;;;;5078906;28;20040;-82
2022/11/02 05:05:07;;;;;;;0.00;0.00;;;11.40;99.90;;;;;;5095968;28;20048;-82
2022/11/02 05:07:32;;;;;;;0.10;0.00;;;11.40;99.90;;;;;;5078785;28;20387;-82
2022/11/02 05:09:58;;;;;;;0.00;0.00;;;11.40;99.90;;;;;;5095620;28;20051;-81
2022/11/02 05:12:24;;;;;;;0.00;0.00;;;11.50;99.90;;;;;;5095383;28;20040;-82
2022/11/02 05:14:49;;;;;;;0.00;0.00;;;11.40;99.90;;;;;;5078743;28;20085;-82
2022/11/02 05:17:15;;;;;;;0.00;0.00;;;11.50;99.90;;;;;;5095553;28;20040;-81
2022/11/02 05:19:41;;;;;;;0.00;0.00;;;11.40;99.90;;;;;;5095598;28;20399;-82
2022/11/02 05:22:07;;;;;;;0.00;0.00;;;11.50;99.90;;;;;;5078531;28;20127;-82
2022/11/02 05:24:32;;;;;;;0.00;0.00;;;11.40;99.90;;;;;;5095150;28;20044;-82
2022/11/02 05:27:01;;;;;;;0.00;0.00;;;11.50;99.90;;;;;;5095540;28;20535;-82
2022/11/02 05:29:26;;;;;;;0.08;0.08;;;11.40;99.90;;;;;;5095313;28;20048;-82
2022/11/02 05:31:52;;;;;;;0.20;0.20;;;11.50;99.90;;;;;;5095006;28;20067;-82
2022/11/02 05:34:18;;;;;;;0.00;0.00;;;11.50;99.90;;;;;;5077380;28;20052;-82
2022/11/02 05:36:46;;;;;;;0.17;0.17;;;11.60;99.90;;;;;;5077993;28;20395;-82
2022/11/02 05:39:12;;;;;;;0.00;0.00;;;11.60;99.90;;;;;;5095065;28;20048;-82
2022/11/02 05:41:37;;;;;;;0.00;0.00;;;11.50;99.90;;;;;;5095649;28;20502;-82
2022/11/02 05:44:03;;;;;;;0.00;0.00;;;11.40;99.90;;;;;;5094684;28;20040;-82
2022/11/02 05:46:29;;;;;;;0.00;0.00;;;11.50;99.90;;;;;;5094787;28;20058;-83
2022/11/02 05:48:54;;;;;;;0.00;0.00;;;11.40;99.90;;;;;;5094582;28;20052;-85
2022/11/02 05:51:20;;;;;;;0.03;0.03;;;11.40;99.90;;;;;;5094480;28;20066;-85
2022/11/02 05:53:46;;;;;;;0.00;0.00;;;11.30;99.90;;;;;;5078215;28;20059;-84
2022/11/02 05:56:12;;;;;;;0.05;0.03;;;11.20;99.90;;;;;;5078555;28;20048;-84
2022/11/02 05:58:38;;;;;;;0.00;0.00;;;11.20;99.90;;;;;;5094726;28;20052;-85
2022/11/02 06:01:05;;;;;;;0.20;0.20;;;11.20;99.90;;;;;;5077906;28;20127;-84
2022/11/02 06:03:31;;;;;;;0.10;0.10;;;11.20;99.90;;;;;;5094651;28;20599;-84
2022/11/02 06:06:03;;;;;;;0.00;0.00;;;11.20;99.90;;;;;;5077417;28;20138;-83
2022/11/02 06:08:32;;;;;;;0.00;0.00;;;11.20;99.90;;;;;;5077726;28;20059;-83
2022/11/02 06:10:58;;;;;;;0.03;0.03;;;11.20;99.90;;;;;;5077512;28;20085;-83
2022/11/02 06:13:24;;;;;;;1.95;0.80;;;11.20;99.90;;;;;;5077927;28;20197;-84
2022/11/02 06:15:49;;;;;;;0.00;0.00;;;11.30;99.90;;;;;;5094313;28;20123;-83
2022/11/02 06:18:15;;;;;;;0.10;0.10;;;11.30;99.90;;;;;;5094433;28;20075;-82
2022/11/02 06:20:41;;;;;;;0.88;0.45;;;11.30;99.90;;;;;;5077183;28;20191;-83
2022/11/02 06:23:07;;;;;;;0.10;0.08;;;11.30;99.90;;;;;;5094317;28;20044;-83
2022/11/02 06:25:32;;;;;;;0.08;0.08;;;11.20;99.90;;;;;;5094192;28;20043;-83
2022/11/02 06:27:58;;;;;;;0.00;0.00;;;11.20;99.90;;;;;;5094084;28;20419;-83
2022/11/02 06:30:25;;;;;;;0.88;0.50;;;11.20;99.90;;;;;;5077238;28;20373;-82
2022/11/02 06:32:52;;;;;;;0.05;0.05;;;11.20;99.90;;;;;;5093326;28;20056;-82
2022/11/02 06:35:19;;;;;;;0.25;0.25;;;11.20;99.90;;;;;;5093958;28;20044;-82
2022/11/02 06:37:45;;;;;;;0.10;0.10;;;11.20;99.90;;;;;;5077063;28;20091;-82
2022/11/02 06:40:12;;;;;;;0.52;0.45;;;11.10;99.90;;;;;;5077274;28;20137;-82
2022/11/02 06:42:38;;;;;;;0.00;0.00;;;11.10;99.90;;;;;;5093899;28;20048;-82
2022/11/02 06:45:04;;;;;;;0.00;0.00;;;11.10;99.90;;;;;;5076852;28;20047;-83
2022/11/02 06:47:31;;;;;;;0.00;0.00;;;11.10;99.90;;;;;;5093420;28;20067;-82
2022/11/02 06:49:58;;;;;;;0.00;0.00;;;11.10;99.90;;;;;;5077097;28;20052;-82
2022/11/02 06:52:23;;;;;;;0.43;0.43;;;11.00;99.90;;;;;;5093433;28;20529;-82
2022/11/02 06:54:49;;;;;;;0.00;0.00;;;11.00;99.90;;;;;;5076526;28;20044;-82
2022/11/02 06:57:14;;;;;;;0.00;0.00;;;11.10;99.90;;;;;;5076733;28;20048;-82
2022/11/02 06:59:40;;;;;;;6.13;0.52;;;11.10;99.90;;;;;;5076860;28;20093;-82
2022/11/02 07:02:07;;;;;;;0.00;0.00;;;11.10;99.90;;;;;;5076598;28;20070;-82
2022/11/02 07:04:32;;;;;;;0.00;0.00;;;11.00;99.90;;;;;;5093290;28;20430;-82
2022/11/02 07:06:58;;;;;;;0.10;0.10;;;11.00;99.90;;;;;;5093368;28;20040;-82
2022/11/02 07:09:23;;;;;;;0.00;0.00;;;11.10;99.90;;;;;;5076436;28;20051;-82
2022/11/02 07:11:49;;;;;;;0.15;0.15;;;11.10;99.90;;;;;;5093476;28;20400;-83
2022/11/02 07:14:15;;;;;;;0.00;0.00;;;11.00;99.90;;;;;;5076345;28;20052;-82
2022/11/02 07:16:40;;;;;;;0.00;0.00;;;11.10;99.90;;;;;;5076560;28;20056;-82
2022/11/02 07:19:06;;;;;;;0.00;0.00;;;11.10;99.90;;;;;;5093702;28;20458;-82
2022/11/02 07:21:31;;;;;;;0.30;0.30;;;11.10;99.90;;;;;;5093236;28;20500;-82
2022/11/02 07:23:57;;;;;;;0.28;0.28;;;11.10;99.90;;;;;;5093286;28;20036;-82
2022/11/02 07:26:23;;;;;;;0.00;0.00;;;11.20;99.90;;;;;;5093223;28;20048;-82
2022/11/02 07:28:48;;;;;;;2.45;0.57;;;11.30;99.90;;;;;;5093207;28;20040;-82
2022/11/02 07:31:14;;;;;;;0.90;0.47;;;11.40;99.90;;;;;;5075928;28;20055;-82
2022/11/02 07:33:40;;;;;;;4.65;0.88;;;11.50;99.90;;;;;;5093082;28;20047;-82
2022/11/02 07:36:05;;;;;;;0.00;0.00;;;11.60;99.90;;;;;;5093817;28;20127;-82
2022/11/02 07:38:31;;;;;;;7.57;0.90;;;11.60;99.90;;;;;;5076329;28;20054;-82
2022/11/02 07:40:57;;;;;;;0.47;0.30;;;11.70;99.90;;;;;;5076271;28;20055;-82
2022/11/02 07:43:22;;;;;;;0.28;0.28;;;11.70;99.90;;;;;;5092964;28;20039;-82
2022/11/02 07:45:48;;;;;;;1.85;0.63;;;11.80;99.90;;;;;;5092735;28;20395;-82
2022/11/02 07:48:13;;;;;;;0.25;0.05;;;11.80;99.90;;;;;;5092420;28;20051;-82
2022/11/02 07:50:39;;;;;;;0.00;0.00;;;11.90;99.90;;;;;;5093365;28;20048;-81
2022/11/02 07:53:05;;;;;;;2.20;0.60;;;11.90;99.90;;;;;;5076052;28;20036;-82
2022/11/02 07:55:31;;;;;;;0.00;0.00;;;12.00;99.90;;;;;;5092855;28;20047;-81
2022/11/02 07:58:02;;;;;;;0.90;0.55;;;12.00;99.90;;;;;;5092147;28;20044;-81
2022/11/02 08:00:31;;;;;;;0.00;0.00;;;12.10;99.90;;;;;;5075803;28;20043;-82
2022/11/02 08:02:58;;;;;;;0.00;0.00;;;12.20;99.90;;;;;;5076103;28;20047;-83
2022/11/02 08:05:25;;;;;;;0.15;0.15;;;12.30;99.90;;;;;;5075876;28;20480;-83
2022/11/02 08:08:13;;;;;;;0.00;0.00;;;12.30;99.90;;;;;;5076281;28;20052;-82
2022/11/02 08:10:39;;;;;;;0.00;0.00;;;12.10;99.90;;;;;;5075708;28;20365;-83
2022/11/02 08:13:05;;;;;;;0.00;0.00;;;12.20;99.90;;;;;;5093102;28;20109;-83
2022/11/02 08:15:31;;;;;;;0.05;0.05;;;12.10;99.90;;;;;;5092410;28;20101;-82
2022/11/02 08:18:06;;;;;;;0.00;0.00;;;12.10;99.90;;;;;;5092567;28;20040;-81
2022/11/02 08:20:34;;;;;;;0.00;0.00;;;12.30;99.90;;;;;;5092249;28;20040;-83
2022/11/02 08:23:01;;;;;;;0.35;0.35;;;12.40;99.90;;;;;;5075706;28;20519;-82
2022/11/02 08:25:26;;;;;;;0.63;0.17;;;12.70;99.90;;;;;;5092132;28;20087;-82
2022/11/02 08:27:59;;;;;;;0.00;0.00;;;12.70;99.90;;;;;;5075822;28;20459;-82
2022/11/02 08:30:26;;;;;;;0.00;0.00;;;12.60;99.90;;;;;;5092651;28;20052;-82
2022/11/02 08:32:52;;;;;;;0.13;0.13;;;12.50;99.90;;;;;;5091238;28;20036;-82
2022/11/02 08:35:17;;;;;;;0.00;0.00;;;12.40;99.90;;;;;;5090726;28;20454;-82
2022/11/02 08:37:43;;;;;;;0.00;0.00;;;12.30;99.90;;;;;;5075784;28;20048;-82
2022/11/02 08:40:09;;;;;;;0.00;0.00;;;12.30;99.90;;;;;;5075791;28;20399;-81
2022/11/02 08:42:37;;;;;;;0.00;0.00;;;12.30;99.90;;;;;;5075942;28;20496;-81
2022/11/02 08:45:05;;;;;;;0.10;0.10;;;13.10;99.90;;;;;;5092113;28;20040;-81
2022/11/02 08:47:31;;;;;;;0.00;0.00;;;13.90;99.90;;;;;;5075402;28;20506;-81
2022/11/02 08:49:56;;;;;;;0.57;0.20;;;14.30;99.90;;;;;;5091882;28;20052;-81
2022/11/02 08:52:22;;;;;;;0.00;0.00;;;14.50;99.90;;;;;;5075121;28;20048;-81
2022/11/02 08:54:48;;;;;;;0.20;0.20;;;15.20;99.90;;;;;;5092238;28;20128;-81
2022/11/02 08:57:13;;;;;;;0.05;0.03;;;15.50;99.90;;;;;;5075540;28;20151;-81
2022/11/02 08:59:39;;;;;;;1.17;0.50;;;15.70;99.90;;;;;;5092237;28;20076;-81
2022/11/02 09:02:04;;;;;;;0.00;0.00;;;16.00;99.90;;;;;;5075566;28;20036;-81
2022/11/02 09:04:30;;;;;;;1.35;0.28;;;15.70;99.90;;;;;;5091654;28;20059;-81
2022/11/02 09:06:56;;;;;;;0.17;0.17;;;15.20;99.90;;;;;;5075505;28;20453;-81
2022/11/02 09:09:21;;;;;;;0.47;0.47;;;14.80;99.90;;;;;;5093293;28;20065;-82
2022/11/02 09:11:49;;;;;;;0.00;0.00;;;14.90;99.90;;;;;;5095765;28;20079;-81
2022/11/02 09:14:15;;;;;;;0.00;0.00;;;15.60;99.90;;;;;;5095639;28;20051;-81
2022/11/02 09:16:40;;;;;;;0.43;0.43;;;16.10;99.90;;;;;;5079109;28;20052;-82
2022/11/02 09:19:06;;;;;;;0.00;0.00;;;16.10;99.90;;;;;;5079148;28;20088;-82
2022/11/02 09:21:31;;;;;;;0.00;0.00;;;15.70;99.90;;;;;;5078923;28;20059;-82
2022/11/02 09:23:57;;;;;;;0.00;0.00;;;15.50;99.90;;;;;;5095456;28;20086;-81
2022/11/02 09:26:23;;;;;;;0.00;0.00;;;15.60;99.90;;;;;;5095411;28;20044;-82
2022/11/02 09:28:48;;;;;;;0.00;0.00;;;15.60;99.90;;;;;;5095386;28;20385;-81
2022/11/02 09:31:14;;;;;;;0.00;0.00;;;15.60;99.90;;;;;;5095252;28;20048;-81
2022/11/02 09:33:39;;;;;;;0.75;0.28;;;15.60;99.90;;;;;;5078664;28;20056;-82
2022/11/02 09:36:06;;;;;;;0.00;0.00;;;15.80;99.90;;;;;;5095288;28;20097;-81
2022/11/02 09:38:32;;;;;;;0.75;0.32;;;15.90;99.90;;;;;;5095213;28;20048;-81
2022/11/02 09:40:57;;;;;;;0.00;0.00;;;16.20;99.90;;;;;;5095252;28;20043;-82
2022/11/02 09:43:32;;;;;;;0.22;0.20;;;15.90;99.90;;;;;;5095130;28;20364;-82
2022/11/02 09:46:12;;;;;;;0.00;0.00;;;15.50;99.90;;;;;;5095169;28;20135;-82
2022/11/02 09:49:07;;;;;;;0.00;0.00;;;15.40;99.90;;;;;;5077899;28;20113;-81
2022/11/02 09:51:57;;;;;;;3.22;0.85;;;15.20;99.90;;;;;;5077502;28;20462;-82
2022/11/02 09:54:43;;;;;;;0.00;0.00;;;15.00;99.90;;;;;;5078153;28;20040;-82
2022/11/02 09:57:23;;;;;;;0.00;0.00;;;14.80;99.90;;;;;;5078079;28;20060;-81
2022/11/02 09:59:49;;;;;;;0.00;0.00;;;15.00;99.90;;;;;;5078287;28;20384;-81
2022/11/02 10:02:34;;;;;;;0.65;0.28;;;15.40;99.90;;;;;;5094866;28;20097;-82
2022/11/02 10:05:03;;;;;;;;;;;15.60;99.90;;;;;;5078624;28;20063;-81
2022/11/02 10:07:53;;;;;;;4.30;0.60;;;16.00;99.90;;;;;;5094670;28;19920;-81
2022/11/02 10:10:30;;;;;;;0.35;0.35;;;16.70;99.90;;;;;;5077945;28;20083;-81
2022/11/02 10:13:16;;;;;;;0.00;0.00;;;16.90;99.90;;;;;;5094398;28;20097;-82
2022/11/02 10:15:47;;;;;;;0.00;0.00;;;17.10;99.90;;;;;;5094661;28;20134;-82
2022/11/02 10:18:21;;;;;;;0.00;0.00;;;17.20;99.90;;;;;;5095210;28;20083;-82
2022/11/02 10:20:51;;;;;;;0.10;0.08;;;16.70;99.90;;;;;;5094193;28;20051;-82
2022/11/02 10:23:31;;;;;;;0.00;0.00;;;16.10;99.90;;;;;;5094750;28;20048;-82
2022/11/02 10:25:59;;;;;;;0.65;0.20;;;15.90;99.90;;;;;;5094295;28;20135;-81
2022/11/02 10:28:29;;;;;;;0.00;0.00;;;15.70;99.90;;;;;;5093895;28;20040;-81
2022/11/02 10:30:55;;;;;;;0.00;0.00;;;15.70;99.90;;;;;;5077234;28;20135;-82
2022/11/02 10:33:30;;;;;;;0.10;0.10;;;16.00;99.90;;;;;;5094644;28;20138;-82
2022/11/02 10:36:30;;;;;;;0.00;0.00;;;15.70;99.90;;;;;;5077488;28;20056;-82
2022/11/02 10:39:05;;;;;;;0.25;0.10;;;15.80;99.90;;;;;;5094076;28;20052;-82
2022/11/02 10:41:53;;;;;;;0.00;0.00;;;15.70;99.90;;;;;;5077146;28;20097;-82
2022/11/02 10:44:45;;;;;;;1.08;0.38;;;15.90;99.90;;;;;;5093669;28;20554;-82
2022/11/02 10:47:16;;;;;;;0.50;0.00;;;16.00;99.90;;;;;;5089844;28;20059;-82
2022/11/02 10:49:48;;;;;;;0.00;0.00;;;16.50;99.90;;;;;;5076254;28;20060;-82
2022/11/02 10:52:15;;;;;;;0.08;0.00;;;16.30;99.90;;;;;;5093625;28;20048;-82
2022/11/02 10:54:41;;;;;;;0.00;0.00;;;16.20;99.90;;;;;;5076752;28;20151;-82
2022/11/02 10:57:12;;;;;;;1.00;0.45;;;15.90;99.90;;;;;;5093692;28;20079;-81
2022/11/02 10:59:38;;;;;;;0.00;0.00;;;15.80;99.90;;;;;;5093289;28;20134;-82
2022/11/02 11:02:11;;;;;;;0.10;0.10;;;15.40;99.90;;;;;;5076739;28;20143;-81
2022/11/02 11:04:36;;;;;;;0.00;0.00;;;15.00;99.90;;;;;;5093361;28;20070;-82
2022/11/02 11:07:25;;;;;;;1.13;0.32;;;14.80;99.90;;;;;;5076707;28;20047;-82
2022/11/02 11:09:54;;;;;;;0.00;0.00;;;14.80;99.90;;;;;;5093560;28;20102;-81
2022/11/02 11:12:25;;;;;;;0.00;0.00;;;14.80;99.90;;;;;;5076294;28;20047;-81
2022/11/02 11:14:54;;;;;;;0.00;0.00;;;14.70;99.90;;;;;;5094116;28;20051;-82
2022/11/02 11:17:28;;;;;;;0.88;0.52;;;14.70;99.90;;;;;;5076618;28;20044;-82
2022/11/02 11:19:56;;;;;;;0.15;0.15;;;14.70;99.90;;;;;;5077059;28;20120;-82
2022/11/02 11:22:37;;;;;;;0.15;0.15;;;15.00;99.90;;;;;;5076348;28;20479;-82
2022/11/02 11:25:11;;;;;;;0.10;0.00;;;15.10;99.90;;;;;;5093994;28;20052;-83
2022/11/02 11:27:45;;;;;;;0.00;0.00;;;15.40;99.90;;;;;;5093608;28;20044;-82
2022/11/02 11:30:27;;;;;;;0.00;0.00;;;15.50;99.90;;;;;;5076612;28;20051;-82
2022/11/02 11:32:54;;;;;;;0.00;0.00;;;15.60;99.90;;;;;;5091765;28;20488;-82
2022/11/02 11:35:21;;;;;;;0.00;0.00;;;15.70;99.90;;;;;;5076349;28;20079;-82
2022/11/02 11:37:55;;;;;;;3.95;0.98;;;15.80;99.90;;;;;;5092970;28;20051;-82
2022/11/02 11:40:23;;;;;;;0.00;0.00;;;15.90;99.90;;;;;;5093266;28;20040;-82
2022/11/02 11:42:52;;;;;;;0.00;0.00;;;15.90;99.90;;;;;;5076378;28;20139;-82
2022/11/02 11:45:37;;;;;;;0.00;0.00;;;16.00;99.90;;;;;;5076244;28;20040;-82
2022/11/02 11:48:31;;;;;;;0.00;0.00;;;16.00;99.90;;;;;;5076158;28;20055;-82
2022/11/02 11:50:58;;;;;;;0.00;0.00;;;16.20;99.90;;;;;;5092897;28;20048;-82
2022/11/02 11:53:25;;;;;;;0.00;0.00;;;16.10;99.90;;;;;;5076125;28;20087;-82
2022/11/02 11:55:59;;;;;;;0.00;0.00;;;16.20;99.90;;;;;;5075932;28;20048;-82
2022/11/02 11:58:29;;;;;;;0.00;0.00;;;16.20;99.90;;;;;;5076251;28;20044;-82
2022/11/02 12:01:19;;;;;;;0.88;0.73;;;16.00;99.90;;;;;;5093227;28;20282;-82
2022/11/02 12:03:56;;;;;;;0.55;0.17;;;16.10;99.90;;;;;;5092577;28;20478;-82
2022/11/02 12:06:45;;;;;;;0.00;0.00;;;16.40;99.90;;;;;;5076079;28;20071;-82
2022/11/02 12:09:56;;;;;;;0.00;0.00;;;17.00;99.90;;;;;;5092892;28;20043;-83
2022/11/02 12:12:54;;;;;;;0.00;0.00;;;17.20;99.90;;;;;;5072451;28;20094;-81
2022/11/02 12:15:28;;;;;;;0.00;0.00;;;17.50;99.90;;;;;;5092749;28;20488;-82
2022/11/02 12:18:21;;;;;;;0.10;0.10;;;17.20;99.90;;;;;;5093090;28;20161;-82
2022/11/02 12:21:06;;;;;;;0.00;0.00;;;16.70;99.90;;;;;;5092771;28;20051;-82
2022/11/02 12:23:47;;;;;;;1.55;0.28;;;16.40;99.90;;;;;;5075857;28;20062;-82
2022/11/02 12:26:23;;;;;;;0.00;0.00;;;16.20;99.90;;;;;;5092769;28;20101;-82
2022/11/02 12:29:09;;;;;;;0.70;0.52;;;15.90;99.90;;;;;;5092669;28;20048;-82
2022/11/02 12:31:43;;;;;;;1.67;0.70;;;15.70;99.90;;;;;;5074183;28;20496;-82
2022/11/02 12:34:48;;;;;;;0.00;0.00;;;15.60;99.90;;;;;;5092739;28;20495;-82
2022/11/02 12:37:24;;;;;;;1.00;0.22;;;15.70;99.90;;;;;;5092338;28;20052;-82
2022/11/02 12:40:05;;;;;;;0.00;0.00;;;15.80;99.90;;;;;;5092163;28;20633;-82
2022/11/02 12:42:56;;;;;;;0.00;0.00;;;16.00;99.90;;;;;;5075509;28;20040;-83
2022/11/02 12:45:46;;;;;;;0.00;0.00;;;16.00;99.90;;;;;;5095769;28;20056;-82
2022/11/02 12:48:38;;;;;;;0.00;0.00;;;16.00;99.90;;;;;;5079049;28;20059;-83
2022/11/02 12:51:26;;;;;;;0.20;0.05;;;16.00;99.90;;;;;;5041120;28;20048;-82
2022/11/02 12:53:58;;;;;;;0.10;0.10;;;16.00;99.90;;;;;;5041720;28;20147;-82
2022/11/02 12:56:38;;;;;;;0.10;0.10;;;16.00;99.90;;;;;;5040928;28;20065;-83
2022/11/02 12:59:03;;;;;;;0.00;0.00;;;16.10;99.90;;;;;;5058571;28;20550;-83
2022/11/02 13:01:33;;;;;;;0.00;0.00;;;16.10;99.10;;;;;;5057254;28;20060;-81
2022/11/02 13:04:27;;;;;;;0.00;0.00;;;16.10;99.90;;;;;;5057958;28;20581;-82
2022/11/02 13:07:10;;;;;;;0.00;0.00;;;16.00;99.90;;;;;;5057958;28;20113;-82
2022/11/02 13:09:52;;;;;;;2.67;0.45;;;15.90;99.90;;;;;;5041028;28;20064;-82
2022/11/02 13:12:21;;;;;;;0.00;0.00;;;15.90;99.90;;;;;;5057830;28;20044;-82
2022/11/02 13:14:53;;;;;;;0.00;0.00;;;15.90;99.90;;;;;;5057999;28;20049;-81
2022/11/02 13:17:25;;;;;;;0.00;0.00;;;15.80;99.90;;;;;;5057814;28;20052;-83
2022/11/02 13:20:00;;;;;;;2.45;0.57;;;15.70;99.90;;;;;;5057600;28;20044;-82
2022/11/02 13:22:33;;;;;;;0.00;0.00;;;15.60;99.90;;;;;;5057629;28;20148;-82
2022/11/02 13:25:16;;;;;;;0.00;0.00;;;15.50;99.90;;;;;;5057751;28;20106;-81
2022/11/02 13:27:54;;;;;;;0.00;0.00;;;15.60;99.90;;;;;;5067303;28;20087;-82